Time;durP1;ratioP1;P1;durP2;ratioP2;P2;SDS_P1;SDS_P2;PMS_P1;PMS_P2;Temp;Humidity;BMP_temperature;BMP_pressure;BME280_temperature;BME280_humidity;BME280_pressure;Samples;Min_cycle;Max_cycle;Signal;HPM_P1;HPM_P2
2023/12/16 00:01:20;;;;;;;26.30;9.65;;;9.60;99.90;;;;;;4265380;27;20070;-62
2023/12/16 00:03:22;;;;;;;24.63;10.63;;;9.50;99.90;;;;;;4255488;27;20053;-62
2023/12/16 00:05:24;;;;;;;29.25;10.82;;;9.50;99.90;;;;;;4267062;27;20047;-62
2023/12/16 00:07:27;;;;;;;24.83;11.15;;;9.60;99.90;;;;;;4243272;27;20438;-62
2023/12/16 00:09:29;;;;;;;23.38;10.15;;;9.60;99.90;;;;;;4254032;27;20047;-62
2023/12/16 00:11:31;;;;;;;26.48;10.82;;;9.60;99.90;;;;;;4251423;27;20047;-62
2023/12/16 00:13:34;;;;;;;24.83;10.15;;;9.60;99.90;;;;;;4261322;27;20047;-61
2023/12/16 00:15:38;;;;;;;25.15;10.65;;;9.60;99.90;;;;;;4250063;27;20482;-62
2023/12/16 00:17:43;;;;;;;23.52;10.05;;;9.60;99.90;;;;;;4257589;27;20039;-62
2023/12/16 00:19:45;;;;;;;28.92;11.43;;;9.60;99.90;;;;;;4258099;27;20462;-62
2023/12/16 00:21:47;;;;;;;25.67;10.35;;;9.60;99.90;;;;;;4265482;27;20480;-62
2023/12/16 00:23:49;;;;;;;24.85;10.00;;;9.60;99.90;;;;;;4263850;27;20034;-62
2023/12/16 00:25:51;;;;;;;23.67;10.05;;;9.60;99.90;;;;;;4267039;27;20081;-62
2023/12/16 00:27:54;;;;;;;23.40;9.77;;;9.60;99.90;;;;;;4264328;27;20042;-68
2023/12/16 00:29:57;;;;;;;25.83;11.18;;;9.50;99.90;;;;;;4257812;27;20054;-62
2023/12/16 00:32:01;;;;;;;24.02;9.88;;;9.50;99.90;;;;;;4266133;27;20057;-62
2023/12/16 00:34:04;;;;;;;26.23;8.32;;;9.50;99.90;;;;;;4263330;27;20058;-62
2023/12/16 00:36:07;;;;;;;24.67;10.00;;;9.50;99.90;;;;;;4266761;27;20051;-62
2023/12/16 00:38:09;;;;;;;20.00;9.93;;;9.50;99.90;;;;;;4260564;27;20039;-62
2023/12/16 00:40:12;;;;;;;24.65;10.23;;;9.50;99.90;;;;;;4259805;27;20446;-62
2023/12/16 00:42:14;;;;;;;26.45;10.55;;;9.50;99.90;;;;;;4266185;27;20115;-62
2023/12/16 00:44:16;;;;;;;21.40;11.02;;;9.50;99.90;;;;;;4253901;27;20067;-63
2023/12/16 00:46:18;;;;;;;30.38;10.38;;;9.40;99.90;;;;;;4266790;27;20049;-63
2023/12/16 00:48:22;;;;;;;27.27;10.65;;;9.40;99.90;;;;;;4262118;27;20042;-63
2023/12/16 00:50:24;;;;;;;28.17;11.02;;;9.40;99.90;;;;;;4258898;27;20453;-62
2023/12/16 00:52:26;;;;;;;25.40;9.82;;;9.40;99.90;;;;;;4248434;27;20122;-62
2023/12/16 00:54:28;;;;;;;21.90;10.23;;;9.40;99.90;;;;;;4253401;27;20134;-64
2023/12/16 00:56:30;;;;;;;22.05;9.15;;;9.50;99.90;;;;;;4249240;27;20051;-62
2023/12/16 00:58:32;;;;;;;25.70;10.35;;;9.40;99.90;;;;;;4252950;27;20091;-62
2023/12/16 01:00:34;;;;;;;25.67;9.80;;;9.40;99.90;;;;;;4256829;27;20462;-62
2023/12/16 01:02:37;;;;;;;27.45;10.77;;;9.40;99.90;;;;;;4266014;27;20042;-62
2023/12/16 01:04:41;;;;;;;20.90;9.82;;;9.30;99.90;;;;;;4254441;27;20123;-62
2023/12/16 01:06:43;;;;;;;21.75;9.55;;;9.30;99.90;;;;;;4265213;27;20125;-62
2023/12/16 01:08:45;;;;;;;25.98;9.88;;;9.30;99.90;;;;;;4264057;27;20099;-63
2023/12/16 01:10:47;;;;;;;22.10;9.50;;;9.30;99.90;;;;;;4255432;27;20042;-62
2023/12/16 01:12:49;;;;;;;22.05;9.48;;;9.30;99.90;;;;;;4265839;27;20081;-62
2023/12/16 01:14:51;;;;;;;18.50;9.02;;;9.30;99.90;;;;;;4261850;27;20075;-62
2023/12/16 01:16:53;;;;;;;22.48;9.38;;;9.30;99.90;;;;;;4251300;27;20413;-62
2023/12/16 01:18:56;;;;;;;27.33;10.40;;;9.30;99.90;;;;;;4252376;27;20050;-63
2023/12/16 01:21:03;;;;;;;25.08;9.90;;;9.30;99.90;;;;;;4263144;27;20448;-62
2023/12/16 01:23:05;;;;;;;29.42;10.52;;;9.30;99.90;;;;;;4265719;27;20066;-62
2023/12/16 01:25:08;;;;;;;25.52;9.75;;;9.30;99.90;;;;;;4265385;27;20081;-62
2023/12/16 01:27:10;;;;;;;25.85;10.05;;;9.30;99.90;;;;;;4251544;27;20553;-62
2023/12/16 01:29:12;;;;;;;25.63;9.65;;;9.20;99.90;;;;;;4249952;27;20130;-62
2023/12/16 01:31:14;;;;;;;26.73;8.70;;;9.20;99.90;;;;;;4264707;27;20035;-62
2023/12/16 01:33:17;;;;;;;24.00;9.25;;;9.20;99.90;;;;;;4266725;27;20038;-62
2023/12/16 01:35:19;;;;;;;24.30;9.65;;;9.20;99.90;;;;;;4262673;27;20125;-63
2023/12/16 01:37:22;;;;;;;25.65;9.85;;;9.20;99.90;;;;;;4235591;27;20458;-63
2023/12/16 01:39:24;;;;;;;27.40;9.55;;;9.20;99.90;;;;;;4250016;27;20381;-62
2023/12/16 01:41:29;;;;;;;24.40;9.52;;;9.20;99.90;;;;;;4259406;27;20099;-62
2023/12/16 01:43:31;;;;;;;25.55;9.80;;;9.20;99.90;;;;;;4248582;27;20104;-62
2023/12/16 01:45:33;;;;;;;20.90;8.82;;;9.20;99.90;;;;;;4255678;27;20047;-64
2023/12/16 01:47:36;;;;;;;22.83;8.73;;;9.20;99.90;;;;;;4253637;27;20043;-62
2023/12/16 01:49:39;;;;;;;24.48;10.60;;;9.10;99.90;;;;;;4249732;27;20047;-62
2023/12/16 01:51:41;;;;;;;23.17;9.45;;;9.10;99.90;;;;;;4259833;27;20042;-63
2023/12/16 01:53:46;;;;;;;21.80;9.23;;;9.10;99.90;;;;;;4247187;27;20043;-63
2023/12/16 01:55:48;;;;;;;19.20;7.95;;;9.00;99.90;;;;;;4254290;27;20039;-62
2023/12/16 01:57:50;;;;;;;29.15;9.27;;;9.00;99.90;;;;;;4254608;27;20050;-62
2023/12/16 01:59:52;;;;;;;23.40;9.15;;;9.00;99.90;;;;;;4249286;27;20051;-62
2023/12/16 02:01:55;;;;;;;20.88;8.57;;;8.90;99.90;;;;;;4260074;27;20050;-66
2023/12/16 02:03:59;;;;;;;23.85;8.80;;;8.90;99.90;;;;;;4250979;27;20093;-63
2023/12/16 02:06:02;;;;;;;25.52;9.57;;;8.90;99.90;;;;;;4253783;27;20066;-62
2023/12/16 02:08:04;;;;;;;20.17;8.40;;;8.90;99.90;;;;;;4254988;27;20047;-62
2023/12/16 02:10:09;;;;;;;24.65;9.48;;;8.90;99.90;;;;;;4247782;27;20054;-63
2023/12/16 02:12:11;;;;;;;22.27;9.20;;;8.90;99.90;;;;;;4234357;27;20051;-61
2023/12/16 02:14:13;;;;;;;24.40;9.02;;;8.90;99.90;;;;;;4265968;27;20047;-65
2023/12/16 02:16:15;;;;;;;25.23;9.98;;;8.90;99.90;;;;;;4261249;27;20050;-61
2023/12/16 02:18:17;;;;;;;28.25;9.57;;;8.90;99.90;;;;;;4257894;27;20062;-61
2023/12/16 02:20:20;;;;;;;23.65;9.02;;;8.90;99.90;;;;;;4265254;27;20042;-61
2023/12/16 02:22:22;;;;;;;21.25;8.60;;;8.90;99.90;;;;;;4252634;27;20051;-61
2023/12/16 02:24:28;;;;;;;23.92;8.27;;;8.80;99.90;;;;;;4264245;27;20042;-62
2023/12/16 02:26:30;;;;;;;23.92;8.93;;;8.80;99.90;;;;;;4260652;27;20348;-63
2023/12/16 02:28:32;;;;;;;20.75;8.15;;;8.70;99.90;;;;;;4256906;27;20121;-62
2023/12/16 02:30:34;;;;;;;17.83;7.50;;;8.70;99.90;;;;;;4253837;27;20126;-62
2023/12/16 02:32:36;;;;;;;27.30;8.30;;;8.60;99.90;;;;;;4260892;27;20039;-64
2023/12/16 02:34:39;;;;;;;26.50;8.23;;;8.60;99.90;;;;;;4249354;27;20057;-62
2023/12/16 02:36:41;;;;;;;21.17;8.32;;;8.60;99.90;;;;;;4249265;27;20493;-62
2023/12/16 02:38:43;;;;;;;25.67;8.52;;;8.50;99.90;;;;;;4258295;27;20043;-67
2023/12/16 02:40:48;;;;;;;22.73;8.20;;;8.50;99.90;;;;;;4248309;27;20159;-62
2023/12/16 02:42:50;;;;;;;22.27;7.72;;;8.50;99.90;;;;;;4258241;27;20039;-62
2023/12/16 02:44:53;;;;;;;18.90;7.70;;;8.40;99.90;;;;;;4249433;27;20046;-62
2023/12/16 02:46:56;;;;;;;19.40;8.20;;;8.50;99.90;;;;;;4248695;27;20142;-62
2023/12/16 02:48:58;;;;;;;28.10;8.93;;;8.50;99.90;;;;;;4253662;27;20494;-67
2023/12/16 02:51:00;;;;;;;22.10;7.75;;;8.50;99.90;;;;;;4264583;27;20034;-62
2023/12/16 02:53:03;;;;;;;21.95;7.78;;;8.50;99.90;;;;;;4259969;27;20493;-62
2023/12/16 02:55:06;;;;;;;21.20;8.23;;;8.40;99.90;;;;;;4251871;27;20079;-63
2023/12/16 02:57:10;;;;;;;20.17;8.27;;;8.40;99.90;;;;;;4252413;27;20192;-62
2023/12/16 02:59:12;;;;;;;20.20;8.02;;;8.40;99.90;;;;;;4262686;27;20442;-62
2023/12/16 03:01:15;;;;;;;20.88;8.18;;;8.40;99.90;;;;;;4251137;27;20039;-63
2023/12/16 03:03:17;;;;;;;26.48;7.85;;;8.40;99.90;;;;;;4245202;27;20410;-62
2023/12/16 03:05:20;;;;;;;21.20;8.30;;;8.40;99.90;;;;;;4254952;27;20123;-62
2023/12/16 03:07:23;;;;;;;26.15;7.35;;;8.40;99.90;;;;;;4252445;27;20036;-62
2023/12/16 03:09:25;;;;;;;29.30;9.27;;;8.40;99.90;;;;;;4256599;27;20067;-62
2023/12/16 03:11:27;;;;;;;21.25;8.63;;;8.40;99.90;;;;;;4268200;27;20042;-62
2023/12/16 03:13:31;;;;;;;18.98;7.63;;;8.50;99.90;;;;;;4260403;27;20047;-63
2023/12/16 03:15:33;;;;;;;15.23;7.63;;;8.40;99.90;;;;;;4249531;27;20110;-62
2023/12/16 03:17:35;;;;;;;21.17;8.07;;;8.50;99.90;;;;;;4265847;27;20039;-62
2023/12/16 03:19:38;;;;;;;23.92;8.88;;;8.50;99.90;;;;;;4264816;27;20485;-62
2023/12/16 03:21:40;;;;;;;20.90;8.48;;;8.50;99.90;;;;;;4268932;27;20046;-62
2023/12/16 03:23:42;;;;;;;21.00;8.35;;;8.50;99.90;;;;;;4262859;27;20039;-62
2023/12/16 03:25:44;;;;;;;24.65;8.85;;;8.50;99.90;;;;;;4267668;27;20109;-62
2023/12/16 03:27:46;;;;;;;19.85;8.30;;;8.50;99.90;;;;;;4267046;27;20081;-62
2023/12/16 03:29:50;;;;;;;22.15;7.78;;;8.60;99.90;;;;;;4258835;27;20058;-62
2023/12/16 03:31:53;;;;;;;22.17;7.95;;;8.60;99.90;;;;;;4267433;27;20051;-62
2023/12/16 03:33:55;;;;;;;20.88;7.57;;;8.60;99.90;;;;;;4262873;27;20417;-61
2023/12/16 03:35:58;;;;;;;17.90;6.90;;;8.70;99.90;;;;;;4249081;27;20144;-61
2023/12/16 03:38:03;;;;;;;20.75;7.20;;;8.80;99.90;;;;;;4267419;27;20057;-62
2023/12/16 03:40:06;;;;;;;20.98;7.93;;;8.80;99.90;;;;;;4265776;27;20091;-63
2023/12/16 03:42:08;;;;;;;21.23;7.93;;;8.70;99.90;;;;;;4251116;27;20047;-63
2023/12/16 03:44:11;;;;;;;20.55;7.65;;;8.70;99.90;;;;;;4254682;27;20043;-62
2023/12/16 03:46:15;;;;;;;20.42;6.55;;;8.80;99.90;;;;;;4267891;27;20049;-63
2023/12/16 03:48:17;;;;;;;18.60;7.33;;;8.90;99.90;;;;;;4267744;27;20046;-64
2023/12/16 03:50:19;;;;;;;21.35;7.88;;;8.90;99.90;;;;;;4254225;27;20039;-63
2023/12/16 03:52:21;;;;;;;18.75;7.22;;;8.90;99.90;;;;;;4250169;27;20050;-63
2023/12/16 03:54:24;;;;;;;20.05;7.22;;;8.90;99.90;;;;;;4254251;27;20500;-62
2023/12/16 03:56:26;;;;;;;17.92;7.18;;;8.90;99.90;;;;;;4257948;27;20038;-62
2023/12/16 03:58:28;;;;;;;20.58;7.63;;;9.00;99.90;;;;;;4267573;27;20397;-63
2023/12/16 04:00:30;;;;;;;23.63;7.88;;;9.00;99.90;;;;;;4255764;27;20055;-63
2023/12/16 04:02:33;;;;;;;19.92;6.45;;;9.10;99.90;;;;;;4267080;27;20042;-63
2023/12/16 04:04:35;;;;;;;14.88;6.55;;;9.10;99.90;;;;;;4247965;27;20039;-64
2023/12/16 04:06:37;;;;;;;18.85;6.70;;;9.00;99.90;;;;;;4256265;27;20117;-62
2023/12/16 04:08:40;;;;;;;16.67;6.90;;;9.10;99.90;;;;;;4267121;27;20545;-63
2023/12/16 04:10:42;;;;;;;18.85;6.63;;;9.10;99.90;;;;;;4256737;27;20047;-63
2023/12/16 04:12:44;;;;;;;18.60;6.25;;;9.00;99.90;;;;;;4264653;27;20043;-63
2023/12/16 04:14:46;;;;;;;17.33;6.43;;;9.00;99.90;;;;;;4265604;27;20066;-63
2023/12/16 04:16:48;;;;;;;17.75;7.53;;;9.00;99.90;;;;;;4255180;27;20121;-63
2023/12/16 04:18:52;;;;;;;20.50;6.88;;;9.00;99.90;;;;;;4267031;27;20502;-62
2023/12/16 04:20:54;;;;;;;21.10;6.97;;;9.00;99.90;;;;;;4257712;27;20039;-64
2023/12/16 04:22:57;;;;;;;18.75;6.85;;;9.00;99.90;;;;;;4262856;27;20126;-64
2023/12/16 04:24:59;;;;;;;19.73;7.18;;;9.00;99.90;;;;;;4264934;27;20473;-63
2023/12/16 04:27:01;;;;;;;19.27;6.40;;;9.00;99.90;;;;;;4261474;27;20068;-66
2023/12/16 04:29:03;;;;;;;22.30;7.53;;;9.00;99.90;;;;;;4250826;27;20051;-65
2023/12/16 04:31:05;;;;;;;26.55;7.93;;;9.00;99.90;;;;;;4261592;27;20050;-63
2023/12/16 04:33:07;;;;;;;21.55;7.55;;;9.00;99.90;;;;;;4255269;27;20393;-63
2023/12/16 04:35:11;;;;;;;18.67;7.45;;;8.90;99.90;;;;;;4250268;27;20047;-63
2023/12/16 04:37:13;;;;;;;23.05;7.30;;;8.90;99.90;;;;;;4260483;27;20126;-63
2023/12/16 04:39:15;;;;;;;16.50;7.00;;;9.00;99.90;;;;;;4249628;27;20043;-63
2023/12/16 04:41:17;;;;;;;20.08;7.18;;;9.00;99.90;;;;;;4255471;27;20114;-63
2023/12/16 04:43:20;;;;;;;24.40;6.95;;;9.00;99.90;;;;;;4255869;27;20141;-63
2023/12/16 04:45:22;;;;;;;18.15;7.00;;;9.00;99.90;;;;;;4250139;27;20090;-63
2023/12/16 04:47:24;;;;;;;23.38;7.38;;;9.10;99.90;;;;;;4262613;27;20043;-63
2023/12/16 04:49:27;;;;;;;26.38;6.82;;;9.10;99.90;;;;;;4266010;27;20451;-64
2023/12/16 04:51:30;;;;;;;24.52;7.35;;;9.10;99.90;;;;;;4261169;27;20042;-63
2023/12/16 04:53:33;;;;;;;27.83;7.55;;;9.10;99.90;;;;;;4258629;27;20050;-63
2023/12/16 04:55:35;;;;;;;20.10;6.90;;;9.20;99.90;;;;;;4266472;27;20046;-63
2023/12/16 04:57:37;;;;;;;23.35;7.45;;;9.20;99.90;;;;;;4254514;27;20078;-63
2023/12/16 04:59:39;;;;;;;21.95;7.43;;;9.20;99.90;;;;;;4266524;27;20058;-64
2023/12/16 05:01:41;;;;;;;21.40;7.43;;;9.20;99.90;;;;;;4263706;27;20043;-63
2023/12/16 05:03:43;;;;;;;31.35;7.82;;;9.20;99.90;;;;;;4249039;27;20035;-64
2023/12/16 05:05:45;;;;;;;23.50;7.18;;;9.30;99.90;;;;;;4266539;27;20122;-63
2023/12/16 05:07:49;;;;;;;16.23;6.95;;;9.20;99.90;;;;;;4261581;27;20043;-63
2023/12/16 05:09:51;;;;;;;16.23;7.05;;;9.20;99.90;;;;;;4249871;27;20074;-63
2023/12/16 05:11:53;;;;;;;20.45;7.18;;;9.20;99.90;;;;;;4251443;27;20083;-62
2023/12/16 05:13:56;;;;;;;22.75;6.93;;;9.10;99.90;;;;;;4240877;27;20105;-62
2023/12/16 05:15:58;;;;;;;19.27;7.18;;;9.10;99.90;;;;;;4248942;27;20073;-62
2023/12/16 05:18:00;;;;;;;23.27;7.57;;;9.10;99.90;;;;;;4258402;27;20043;-63
2023/12/16 05:20:03;;;;;;;20.88;7.00;;;9.10;99.90;;;;;;4256943;27;20117;-62
2023/12/16 05:22:05;;;;;;;23.20;7.10;;;9.10;99.90;;;;;;4264241;27;20481;-62
2023/12/16 05:24:09;;;;;;;19.90;7.68;;;9.00;99.90;;;;;;4262967;27;20047;-62
2023/12/16 05:26:11;;;;;;;18.00;7.28;;;9.00;99.90;;;;;;4266419;27;20042;-63
2023/12/16 05:28:13;;;;;;;20.35;7.55;;;8.90;99.90;;;;;;4262301;27;20049;-64
2023/12/16 05:30:15;;;;;;;20.33;7.18;;;8.90;99.90;;;;;;4255396;27;20122;-62
2023/12/16 05:32:17;;;;;;;20.63;7.72;;;9.00;99.90;;;;;;4263551;27;20564;-66
2023/12/16 05:34:19;;;;;;;20.08;7.13;;;8.90;99.90;;;;;;4254368;27;20049;-64
2023/12/16 05:36:21;;;;;;;21.83;6.57;;;8.90;99.90;;;;;;4266458;27;20074;-63
2023/12/16 05:38:24;;;;;;;18.45;7.75;;;8.90;99.90;;;;;;4257856;27;20061;-62
2023/12/16 05:40:28;;;;;;;25.65;8.02;;;8.90;99.90;;;;;;4261225;27;20083;-63
2023/12/16 05:42:30;;;;;;;20.00;7.35;;;8.80;99.90;;;;;;4263974;27;20043;-62
2023/12/16 05:44:32;;;;;;;24.20;8.48;;;8.80;99.90;;;;;;4253643;27;20283;-62
2023/12/16 05:46:34;;;;;;;17.42;7.75;;;8.70;99.90;;;;;;4265967;27;20054;-63
2023/12/16 05:48:36;;;;;;;22.00;8.35;;;8.70;99.90;;;;;;4258534;27;20050;-62
2023/12/16 05:50:40;;;;;;;20.55;7.30;;;8.70;99.90;;;;;;4261354;27;20497;-64
2023/12/16 05:52:43;;;;;;;20.95;7.50;;;8.70;99.90;;;;;;4264720;27;20047;-61
2023/12/16 05:54:45;;;;;;;25.25;7.55;;;8.70;99.90;;;;;;4254200;27;20099;-61
2023/12/16 05:56:48;;;;;;;21.30;7.10;;;8.60;99.90;;;;;;4265575;27;20349;-63
2023/12/16 05:58:50;;;;;;;17.70;7.32;;;8.60;99.90;;;;;;4259188;27;20126;-62
2023/12/16 06:00:52;;;;;;;18.33;7.43;;;8.50;99.90;;;;;;4260448;27;20081;-63
2023/12/16 06:02:55;;;;;;;25.42;7.75;;;8.50;99.90;;;;;;4266605;27;20100;-65
2023/12/16 06:04:58;;;;;;;28.40;9.95;;;8.50;99.90;;;;;;4237427;27;20051;-63
2023/12/16 06:07:00;;;;;;;28.25;9.65;;;8.40;99.90;;;;;;4267407;27;20042;-64
2023/12/16 06:09:02;;;;;;;23.65;8.88;;;8.30;99.90;;;;;;4261376;27;20088;-63
2023/12/16 06:11:04;;;;;;;24.80;8.40;;;8.30;99.90;;;;;;4258667;27;20101;-63
2023/12/16 06:13:07;;;;;;;24.88;9.60;;;8.30;99.90;;;;;;4267351;27;20121;-65
2023/12/16 06:15:10;;;;;;;26.00;8.50;;;8.20;99.90;;;;;;4261414;27;20042;-64
2023/12/16 06:17:12;;;;;;;24.23;9.20;;;8.20;99.90;;;;;;4264996;27;20092;-63
2023/12/16 06:19:15;;;;;;;21.65;7.72;;;8.20;99.90;;;;;;4261157;27;20043;-63
2023/12/16 06:21:17;;;;;;;23.40;8.05;;;8.20;99.90;;;;;;4264197;27;20070;-63
2023/12/16 06:23:19;;;;;;;27.38;8.65;;;8.10;99.90;;;;;;4265147;27;20493;-63
2023/12/16 06:25:21;;;;;;;25.73;8.55;;;8.10;99.90;;;;;;4264563;27;20085;-64
2023/12/16 06:27:23;;;;;;;22.45;8.25;;;8.10;99.90;;;;;;4248652;27;20043;-63
2023/12/16 06:29:27;;;;;;;25.23;8.55;;;8.10;99.90;;;;;;4249198;27;20374;-63
2023/12/16 06:31:29;;;;;;;24.33;9.10;;;8.10;99.90;;;;;;4264267;27;20046;-64
2023/12/16 06:33:31;;;;;;;22.40;8.35;;;8.10;99.90;;;;;;4246742;27;20054;-64
2023/12/16 06:35:33;;;;;;;23.27;8.43;;;8.10;99.90;;;;;;4260226;27;20039;-63
2023/12/16 06:37:35;;;;;;;26.35;8.93;;;8.00;99.90;;;;;;4250300;27;20074;-63
2023/12/16 06:39:37;;;;;;;25.02;8.43;;;8.00;99.90;;;;;;4248966;27;20065;-63
2023/12/16 06:41:39;;;;;;;19.55;7.28;;;7.90;99.90;;;;;;4259051;27;20066;-63
2023/12/16 06:43:41;;;;;;;20.50;7.20;;;7.90;99.90;;;;;;4247792;27;20058;-64
2023/12/16 06:45:45;;;;;;;23.30;7.18;;;7.90;99.90;;;;;;4255933;27;20061;-63
2023/12/16 06:47:47;;;;;;;20.30;6.78;;;7.90;99.90;;;;;;4251223;27;20050;-63
2023/12/16 06:49:49;;;;;;;21.33;6.85;;;7.90;99.90;;;;;;4248743;27;20424;-64
2023/12/16 06:51:51;;;;;;;20.38;6.85;;;7.90;99.90;;;;;;4242299;28;20047;-64
2023/12/16 06:53:53;;;;;;;21.20;6.60;;;7.90;99.90;;;;;;4247402;28;20051;-63
2023/12/16 06:55:57;;;;;;;20.90;6.43;;;7.80;99.90;;;;;;4248808;27;20218;-64
2023/12/16 06:57:59;;;;;;;24.33;6.72;;;7.80;99.90;;;;;;4259679;27;20050;-63
2023/12/16 07:00:01;;;;;;;22.13;6.75;;;7.80;99.90;;;;;;4262583;27;20043;-62
2023/12/16 07:02:07;;;;;;;17.38;6.32;;;7.70;99.90;;;;;;4252831;27;20126;-64
2023/12/16 07:04:09;;;;;;;21.40;6.88;;;7.70;99.90;;;;;;4264719;27;20053;-64
2023/12/16 07:06:11;;;;;;;21.58;7.07;;;7.70;99.90;;;;;;4257196;27;20047;-64
2023/12/16 07:08:14;;;;;;;20.80;6.25;;;7.70;99.90;;;;;;4258898;27;20454;-64
2023/12/16 07:10:16;;;;;;;27.52;6.93;;;7.70;99.90;;;;;;4262795;27;20046;-64
2023/12/16 07:12:19;;;;;;;21.65;7.20;;;7.70;99.90;;;;;;4262306;27;20505;-61
2023/12/16 07:14:21;;;;;;;22.52;6.55;;;7.70;99.90;;;;;;4247172;27;20146;-63
2023/12/16 07:16:23;;;;;;;14.30;5.47;;;7.70;99.90;;;;;;4252126;27;20043;-63
2023/12/16 07:18:26;;;;;;;16.83;6.38;;;7.70;99.90;;;;;;4254557;27;20439;-63
2023/12/16 07:20:29;;;;;;;19.55;6.30;;;7.70;99.90;;;;;;4256471;27;20047;-64
2023/12/16 07:22:31;;;;;;;20.95;6.05;;;7.70;99.90;;;;;;4252041;27;20051;-63
2023/12/16 07:24:33;;;;;;;18.30;6.05;;;7.60;99.90;;;;;;4264460;27;20477;-63
2023/12/16 07:26:35;;;;;;;17.48;6.35;;;7.60;99.90;;;;;;4260427;27;20035;-64
2023/12/16 07:28:37;;;;;;;20.67;6.50;;;7.60;99.90;;;;;;4254981;27;20065;-69
2023/12/16 07:30:40;;;;;;;19.13;6.40;;;7.60;99.90;;;;;;4260459;27;20039;-64
2023/12/16 07:32:42;;;;;;;21.50;7.15;;;7.70;99.90;;;;;;4251765;27;20047;-63
2023/12/16 07:34:48;;;;;;;21.85;6.78;;;7.70;99.90;;;;;;4264352;27;20050;-63
2023/12/16 07:36:51;;;;;;;23.25;7.40;;;7.60;99.90;;;;;;4261914;27;20072;-63
2023/12/16 07:38:55;;;;;;;22.90;7.30;;;7.60;99.90;;;;;;4256934;27;20081;-64
2023/12/16 07:40:57;;;;;;;19.67;7.32;;;7.60;99.90;;;;;;4247461;27;20069;-64
2023/12/16 07:42:59;;;;;;;24.23;7.70;;;7.50;99.90;;;;;;4255166;27;20043;-64
2023/12/16 07:45:02;;;;;;;22.98;7.10;;;7.50;99.90;;;;;;4250835;27;20490;-63
2023/12/16 07:47:04;;;;;;;18.58;6.80;;;7.50;99.90;;;;;;4256081;27;20070;-63
2023/12/16 07:49:06;;;;;;;20.90;7.03;;;7.60;99.90;;;;;;4257717;27;20058;-64
2023/12/16 07:51:15;;;;;;;22.00;6.68;;;7.60;99.90;;;;;;4267730;27;20039;-64
2023/12/16 07:53:19;;;;;;;18.13;6.47;;;7.60;99.90;;;;;;4255922;27;20070;-63
2023/12/16 07:55:21;;;;;;;19.75;6.43;;;7.60;99.90;;;;;;4266825;27;20158;-64
2023/12/16 07:57:23;;;;;;;15.10;6.38;;;7.60;99.90;;;;;;4264473;27;20129;-63
2023/12/16 07:59:25;;;;;;;19.60;7.03;;;7.50;99.90;;;;;;4257044;27;20080;-63
2023/12/16 08:01:27;;;;;;;21.25;6.50;;;7.50;99.90;;;;;;4249038;27;20124;-62
2023/12/16 08:03:30;;;;;;;22.77;6.70;;;7.50;99.90;;;;;;4256731;27;20047;-64
2023/12/16 08:05:32;;;;;;;24.80;6.50;;;7.60;99.90;;;;;;4264794;27;20061;-63
2023/12/16 08:07:36;;;;;;;16.23;7.20;;;7.60;99.90;;;;;;4265487;27;20386;-63
2023/12/16 08:09:38;;;;;;;17.63;6.93;;;7.60;99.90;;;;;;4242923;27;20457;-63
2023/12/16 08:11:41;;;;;;;19.42;7.03;;;7.60;99.90;;;;;;4249785;27;21037;-62
2023/12/16 08:13:43;;;;;;;19.67;6.93;;;7.60;99.90;;;;;;4258835;27;20125;-63
2023/12/16 08:15:45;;;;;;;21.42;7.25;;;7.60;99.90;;;;;;4253325;27;20047;-63
2023/12/16 08:17:47;;;;;;;20.95;6.88;;;7.60;99.90;;;;;;4253361;27;20113;-63
2023/12/16 08:19:51;;;;;;;19.45;6.82;;;7.60;99.90;;;;;;4255389;27;20477;-62
2023/12/16 08:21:53;;;;;;;15.32;6.00;;;7.60;99.90;;;;;;4267215;27;20529;-63
2023/12/16 08:23:57;;;;;;;18.15;6.35;;;7.60;99.90;;;;;;4263134;27;20115;-63
2023/12/16 08:25:59;;;;;;;21.85;7.28;;;7.60;99.90;;;;;;4266841;27;20043;-63
2023/12/16 08:28:01;;;;;;;25.73;7.38;;;7.50;99.90;;;;;;4265418;27;20408;-64
2023/12/16 08:30:05;;;;;;;29.45;7.43;;;7.60;99.90;;;;;;4238367;27;20049;-64
2023/12/16 08:32:08;;;;;;;21.08;6.70;;;7.60;99.90;;;;;;4252209;27;20043;-65
2023/12/16 08:34:12;;;;;;;20.23;6.68;;;7.60;99.90;;;;;;4257853;27;20042;-63
2023/12/16 08:36:15;;;;;;;21.92;6.82;;;7.70;99.90;;;;;;4254745;27;20134;-64
2023/12/16 08:38:17;;;;;;;21.52;7.60;;;7.80;99.90;;;;;;4251526;27;20130;-64
2023/12/16 08:40:20;;;;;;;17.33;6.80;;;7.80;99.90;;;;;;4262505;27;20076;-64
2023/12/16 08:42:23;;;;;;;22.92;7.55;;;7.80;99.90;;;;;;4250574;27;20047;-69
2023/12/16 08:44:25;;;;;;;22.52;6.32;;;7.80;99.90;;;;;;4256339;27;20118;-64
2023/12/16 08:46:27;;;;;;;26.15;7.93;;;7.80;99.90;;;;;;4237262;27;20565;-64
2023/12/16 08:48:29;;;;;;;16.15;6.82;;;7.90;99.90;;;;;;4232087;27;20047;-64
2023/12/16 08:50:33;;;;;;;17.75;7.55;;;7.90;99.90;;;;;;4261355;27;20047;-64
2023/12/16 08:52:35;;;;;;;23.48;8.85;;;8.00;99.90;;;;;;4248765;27;20043;-64
2023/12/16 08:54:39;;;;;;;26.77;8.52;;;8.00;99.90;;;;;;4254344;27;20046;-63
2023/12/16 08:56:43;;;;;;;25.02;7.60;;;8.00;99.90;;;;;;4256689;27;20045;-64
2023/12/16 08:58:48;;;;;;;24.45;7.65;;;8.00;99.90;;;;;;4249697;27;20047;-64
2023/12/16 09:00:51;;;;;;;24.25;7.57;;;8.10;99.90;;;;;;4261497;27;20050;-64
2023/12/16 09:02:53;;;;;;;18.25;6.53;;;8.10;99.90;;;;;;4249428;27;20168;-64
2023/12/16 09:04:55;;;;;;;22.48;7.60;;;8.10;99.90;;;;;;4254243;27;20074;-64
2023/12/16 09:06:57;;;;;;;17.65;6.57;;;8.10;99.90;;;;;;4257856;27;20054;-66
2023/12/16 09:09:01;;;;;;;17.95;7.45;;;8.10;99.90;;;;;;4250481;27;20045;-65
2023/12/16 09:11:03;;;;;;;16.52;7.07;;;8.20;99.90;;;;;;4255797;27;20047;-64
2023/12/16 09:13:07;;;;;;;25.98;8.70;;;8.20;99.90;;;;;;4267540;27;20039;-65
2023/12/16 09:15:09;;;;;;;24.45;7.90;;;8.30;99.90;;;;;;4262218;27;20045;-64
2023/12/16 09:17:11;;;;;;;20.95;8.18;;;8.40;99.90;;;;;;4257227;27;20043;-63
2023/12/16 09:19:13;;;;;;;22.55;8.13;;;8.40;99.90;;;;;;4265939;27;20053;-64
2023/12/16 09:21:15;;;;;;;15.75;7.63;;;8.40;99.90;;;;;;4261433;27;20046;-64
2023/12/16 09:23:17;;;;;;;24.30;8.18;;;8.50;99.90;;;;;;4257178;27;20054;-66
2023/12/16 09:25:19;;;;;;;24.88;8.20;;;8.40;99.90;;;;;;4262084;27;20035;-64
2023/12/16 09:27:21;;;;;;;29.13;8.65;;;8.40;99.90;;;;;;4259542;27;20047;-64
2023/12/16 09:29:25;;;;;;;27.88;8.30;;;8.50;99.90;;;;;;4251384;27;20093;-63
2023/12/16 09:31:29;;;;;;;22.30;8.93;;;8.50;99.90;;;;;;4254775;27;20047;-62
2023/12/16 09:33:31;;;;;;;32.00;9.15;;;8.60;99.90;;;;;;4261274;27;20095;-61
2023/12/16 09:35:34;;;;;;;31.90;9.23;;;8.70;99.90;;;;;;4254527;27;20042;-61
2023/12/16 09:37:36;;;;;;;32.10;9.02;;;8.80;99.90;;;;;;4255042;27;20039;-64
2023/12/16 09:39:39;;;;;;;26.85;7.68;;;8.80;99.90;;;;;;4266460;27;20042;-61
2023/12/16 09:41:44;;;;;;;26.88;8.63;;;9.00;99.90;;;;;;4256315;27;20046;-62
2023/12/16 09:43:50;;;;;;;28.40;9.18;;;9.10;99.90;;;;;;4263110;27;20138;-62
2023/12/16 09:45:54;;;;;;;25.42;8.48;;;9.20;99.90;;;;;;4264349;27;20068;-62
2023/12/16 09:47:56;;;;;;;21.10;8.55;;;9.30;99.90;;;;;;4254603;27;20046;-63
2023/12/16 09:50:01;;;;;;;32.00;9.02;;;9.30;99.90;;;;;;4265398;27;20042;-62
2023/12/16 09:52:03;;;;;;;25.80;7.95;;;9.40;99.90;;;;;;4263412;27;20043;-62
2023/12/16 09:54:06;;;;;;;22.63;8.52;;;9.50;99.90;;;;;;4246411;27;20046;-62
2023/12/16 09:56:10;;;;;;;21.38;8.23;;;9.50;99.90;;;;;;4263728;27;20050;-63
2023/12/16 09:58:15;;;;;;;25.27;9.73;;;9.50;99.90;;;;;;4253633;27;20039;-62
2023/12/16 10:00:18;;;;;;;22.08;9.05;;;9.50;99.90;;;;;;4266446;27;20531;-62
2023/12/16 10:02:27;;;;;;;29.80;9.93;;;9.50;99.70;;;;;;4257095;27;20051;-62
2023/12/16 10:04:30;;;;;;;29.38;9.68;;;9.50;99.70;;;;;;4264167;27;20042;-62
2023/12/16 10:06:33;;;;;;;28.08;9.55;;;9.50;99.80;;;;;;4264449;27;20447;-63
2023/12/16 10:08:35;;;;;;;27.48;9.18;;;9.50;99.60;;;;;;4252071;27;20192;-64
2023/12/16 10:10:37;;;;;;;26.05;9.48;;;9.50;99.70;;;;;;4265122;27;20481;-62
2023/12/16 10:12:40;;;;;;;24.83;9.75;;;9.50;99.40;;;;;;4260834;27;20043;-62
2023/12/16 10:14:45;;;;;;;24.27;9.20;;;9.50;99.70;;;;;;4265077;27;20047;-63
2023/12/16 10:16:47;;;;;;;26.83;9.15;;;9.60;99.70;;;;;;4262963;27;20467;-62
2023/12/16 10:18:53;;;;;;;24.65;9.52;;;9.60;99.60;;;;;;4260169;27;20049;-63
2023/12/16 10:20:56;;;;;;;24.92;9.15;;;9.70;99.70;;;;;;4264872;27;20042;-62
2023/12/16 10:23:02;;;;;;;23.48;9.75;;;9.70;99.70;;;;;;4264992;27;20117;-62
2023/12/16 10:25:07;;;;;;;20.35;10.05;;;9.70;99.50;;;;;;4278305;27;20125;-62
2023/12/16 10:27:10;;;;;;;28.38;10.73;;;9.80;99.30;;;;;;4250879;27;20035;-61
2023/12/16 10:29:12;;;;;;;25.88;9.65;;;9.80;99.30;;;;;;4253010;27;20042;-62
2023/12/16 10:31:15;;;;;;;20.95;9.77;;;9.90;98.90;;;;;;4264942;27;20271;-61
2023/12/16 10:33:22;;;;;;;25.00;11.35;;;10.00;99.40;;;;;;4237538;27;20515;-61
2023/12/16 10:35:26;;;;;;;24.00;10.48;;;10.00;98.70;;;;;;4261411;27;20158;-61
2023/12/16 10:37:28;;;;;;;43.35;15.10;;;10.10;98.70;;;;;;4262844;27;20466;-61